IBIS1 EDFE-EDFE
Flight info
| Callsign | IBIS1 |
|---|---|
| Flight time | 0h 5m |
| Altitude | 1111 |
| Route | EDFE |
| Aircraft | EC35/L-V/N |
Departure
| Time | 2026-04-18 10:15 |
|---|---|
| Airport | Frankfurt-Egelsbach Airport (EDFE) |
Arrival
| Time | 2026-04-18 10:21 |
|---|---|
| Airport | Frankfurt-Egelsbach Airport (EDFE) |
| Time | Latitude | Longitude | Altitude | Speed | Heading |
|---|---|---|---|---|---|
| 2026-04-18 10:09 | 49.96195 | 8.63724 | 378 ft | 0 kts | 2° |
| 2026-04-18 10:11 | 49.96195 | 8.63726 | 390 ft | 1 kts | 52° |
| 2026-04-18 10:11 | 49.96195 | 8.63718 | 392 ft | 2 kts | 62° |
| 2026-04-18 10:12 | 49.96190 | 8.63671 | 400 ft | 2 kts | 59° |
| 2026-04-18 10:12 | 49.96191 | 8.63679 | 399 ft | 2 kts | 59° |
| 2026-04-18 10:12 | 49.96233 | 8.63675 | 500 ft | 7 kts | 66° |
| 2026-04-18 10:12 | 49.96280 | 8.63778 | 630 ft | 5 kts | 82° |
| 2026-04-18 10:13 | 49.96281 | 8.63776 | 646 ft | 2 kts | 82° |
| 2026-04-18 10:13 | 49.96275 | 8.63761 | 625 ft | 2 kts | 82° |
| 2026-04-18 10:13 | 49.96273 | 8.63756 | 618 ft | 0 kts | 82° |
| 2026-04-18 10:14 | 49.96273 | 8.63755 | 632 ft | 0 kts | 57° |
| 2026-04-18 10:14 | 49.96248 | 8.63745 | 720 ft | 5 kts | 275° |
| 2026-04-18 10:14 | 49.96240 | 8.63642 | 899 ft | 16 kts | 276° |
| 2026-04-18 10:14 | 49.96243 | 8.63386 | 1270 ft | 33 kts | 278° |
| 2026-04-18 10:15 | 49.96263 | 8.62953 | 1396 ft | 44 kts | 314° |
| 2026-04-18 10:15 | 49.96362 | 8.62515 | 1417 ft | 44 kts | 341° |
| 2026-04-18 10:15 | 49.96620 | 8.62182 | 1405 ft | 53 kts | 13° |
| 2026-04-18 10:15 | 49.96978 | 8.62203 | 1470 ft | 57 kts | 59° |
| 2026-04-18 10:16 | 49.97328 | 8.62761 | 1421 ft | 83 kts | 66° |
| 2026-04-18 10:16 | 49.97389 | 8.63601 | 1487 ft | 73 kts | 164° |
| 2026-04-18 10:16 | 49.97106 | 8.64028 | 1794 ft | 59 kts | 204° |
| 2026-04-18 10:16 | 49.96740 | 8.63695 | 1531 ft | 78 kts | 247° |
| 2026-04-18 10:17 | 49.96622 | 8.62745 | 1274 ft | 98 kts | 276° |
| 2026-04-18 10:17 | 49.96882 | 8.61756 | 1119 ft | 101 kts | 309° |
| 2026-04-18 10:17 | 49.97306 | 8.60970 | 1111 ft | 91 kts | 316° |
| 2026-04-18 10:17 | 49.97740 | 8.60296 | 1263 ft | 89 kts | 321° |
| 2026-04-18 10:18 | 49.98224 | 8.59662 | 1386 ft | 96 kts | 324° |
| 2026-04-18 10:18 | 49.98785 | 8.59003 | 1402 ft | 104 kts | 326° |
| 2026-04-18 10:18 | 49.99333 | 8.58291 | 1558 ft | 98 kts | 311° |
| 2026-04-18 10:18 | 49.99540 | 8.57281 | 1619 ft | 103 kts | 283° |
| 2026-04-18 10:19 | 49.99622 | 8.56078 | 1502 ft | 120 kts | 278° |
| 2026-04-18 10:19 | 49.99674 | 8.54710 | 1277 ft | 135 kts | 277° |
| 2026-04-18 10:19 | 49.99707 | 8.53222 | 1068 ft | 138 kts | 274° |
| 2026-04-18 10:19 | 50.00119 | 8.52159 | 830 ft | 129 kts | 21° |
| 2026-04-18 10:20 | 50.00970 | 8.52386 | 586 ft | 120 kts | 2° |
| 2026-04-18 10:20 | 50.01713 | 8.52334 | 580 ft | 95 kts | 359° |
| 2026-04-18 10:20 | 50.02297 | 8.52070 | 481 ft | 89 kts | 331° |
| 2026-04-18 10:20 | 50.02859 | 8.52017 | 414 ft | 80 kts | 7° |
| 2026-04-18 10:21 | 50.03334 | 8.52067 | 478 ft | 55 kts | 13° |
| 2026-04-18 10:21 | 50.03629 | 8.52121 | 546 ft | 35 kts | 33° |
| 2026-04-18 10:21 | 50.03791 | 8.52422 | 540 ft | 38 kts | 66° |
| 2026-04-18 10:21 | 50.03890 | 8.52798 | 541 ft | 37 kts | 85° |
| 2026-04-18 10:22 | 50.04021 | 8.53032 | 576 ft | 22 kts | 85° |
| 2026-04-18 10:22 | 50.04041 | 8.53256 | 564 ft | 18 kts | 83° |
| 2026-04-18 10:22 | 50.04031 | 8.53203 | 522 ft | 17 kts | 71° |
| 2026-04-18 10:22 | 50.04027 | 8.53215 | 579 ft | 22 kts | 65° |
| 2026-04-18 10:23 | 50.04117 | 8.53607 | 772 ft | 39 kts | 351° |
| 2026-04-18 10:23 | 50.04264 | 8.53551 | 871 ft | 36 kts | 254° |
| 2026-04-18 10:23 | 50.04136 | 8.53051 | 738 ft | 56 kts | 243° |
| 2026-04-18 10:23 | 50.04022 | 8.52504 | 621 ft | 53 kts | 258° |
| 2026-04-18 10:24 | 50.03908 | 8.52015 | 543 ft | 44 kts | 254° |
| 2026-04-18 10:24 | 50.03803 | 8.51571 | 472 ft | 39 kts | 254° |
| 2026-04-18 10:24 | 50.03741 | 8.51264 | 462 ft | 25 kts | 257° |
| 2026-04-18 10:24 | 50.03689 | 8.51052 | 531 ft | 24 kts | 258° |
| 2026-04-18 10:25 | 50.03611 | 8.50599 | 559 ft | 61 kts | 260° |
| 2026-04-18 10:25 | 50.03494 | 8.49807 | 527 ft | 80 kts | 278° |
| 2026-04-18 10:25 | 50.03733 | 8.49390 | 719 ft | 51 kts | 65° |
| 2026-04-18 10:25 | 50.03975 | 8.49973 | 625 ft | 79 kts | 90° |
| 2026-04-18 10:26 | 50.04147 | 8.50881 | 528 ft | 93 kts | 72° |
| 2026-04-18 10:26 | 50.04362 | 8.51838 | 531 ft | 94 kts | 70° |
| 2026-04-18 10:26 | 50.04574 | 8.52755 | 594 ft | 89 kts | 72° |
| 2026-04-18 10:26 | 50.04667 | 8.53655 | 682 ft | 82 kts | 100° |
| 2026-04-18 10:27 | 50.04640 | 8.54544 | 709 ft | 83 kts | 78° |
| 2026-04-18 10:27 | 50.04772 | 8.55437 | 716 ft | 87 kts | 70° |
| 2026-04-18 10:27 | 50.04949 | 8.56344 | 706 ft | 90 kts | 69° |
| 2026-04-18 10:27 | 50.05136 | 8.57286 | 716 ft | 89 kts | 70° |
| 2026-04-18 10:28 | 50.05115 | 8.58213 | 747 ft | 86 kts | 77° |
| 2026-04-18 10:28 | 50.05224 | 8.59077 | 670 ft | 63 kts | 68° |
| 2026-04-18 10:28 | 50.05267 | 8.59486 | 593 ft | 23 kts | 89° |
| 2026-04-18 10:28 | 50.05249 | 8.59691 | 571 ft | 12 kts | 85° |
| 2026-04-18 10:29 | 50.05222 | 8.59860 | 617 ft | 39 kts | 118° |
| 2026-04-18 10:29 | 50.04860 | 8.60140 | 634 ft | 77 kts | 227° |
| 2026-04-18 10:29 | 50.04261 | 8.59728 | 518 ft | 109 kts | 204° |
| 2026-04-18 10:29 | 50.03544 | 8.59158 | 502 ft | 122 kts | 221° |
| 2026-04-18 10:30 | 50.03082 | 8.58194 | 574 ft | 121 kts | 276° |
| 2026-04-18 10:30 | 50.02839 | 8.57031 | 762 ft | 113 kts | 251° |
| 2026-04-18 10:30 | 50.02618 | 8.55800 | 676 ft | 127 kts | 261° |
| 2026-04-18 10:30 | 50.02463 | 8.54444 | 681 ft | 126 kts | 255° |
| 2026-04-18 10:31 | 50.02077 | 8.53299 | 624 ft | 124 kts | 191° |
| 2026-04-18 10:31 | 50.01240 | 8.53095 | 567 ft | 127 kts | 166° |
| 2026-04-18 10:31 | 50.00356 | 8.53058 | 521 ft | 125 kts | 165° |
| 2026-04-18 10:31 | 49.99548 | 8.53159 | 632 ft | 111 kts | 133° |
| 2026-04-18 10:32 | 49.99284 | 8.54245 | 665 ft | 114 kts | 94° |
| 2026-04-18 10:32 | 49.99157 | 8.55497 | 674 ft | 119 kts | 108° |
| 2026-04-18 10:32 | 49.98753 | 8.56673 | 695 ft | 124 kts | 120° |
| 2026-04-18 10:32 | 49.98330 | 8.57864 | 638 ft | 130 kts | 116° |
| 2026-04-18 10:33 | 49.98144 | 8.58740 | 652 ft | 128 kts | 102° |
| 2026-04-18 10:33 | 49.97492 | 8.60062 | 735 ft | 121 kts | 153° |
| 2026-04-18 10:33 | 49.96982 | 8.60901 | 957 ft | 101 kts | 97° |
| 2026-04-18 10:33 | 49.96664 | 8.61906 | 968 ft | 106 kts | 105° |
| 2026-04-18 10:34 | 49.96328 | 8.62518 | 765 ft | 122 kts | 115° |
| 2026-04-18 10:34 | 49.96056 | 8.63700 | 430 ft | 109 kts | 69° |
| 2026-04-18 10:34 | 49.96069 | 8.64273 | 475 ft | 17 kts | 327° |
| 2026-04-18 10:34 | 49.96162 | 8.64039 | 412 ft | 46 kts | 255° |
| 2026-04-18 10:35 | 49.96170 | 8.63808 | 412 ft | 2 kts | 284° |
| 2026-04-18 10:35 | 49.96192 | 8.63728 | 383 ft | 3 kts | 261° |
| 2026-04-18 10:35 | 49.96188 | 8.63720 | 378 ft | 0 kts | 254° |